Saint Louis, MO

5:36 PM CST on February 05, 2016 (GMT -0600)
Glendale, MO | | Change Station
CLOSE
Current Station
Personal Weather Station
Location: Saint Louis, MO
Elevation: 623 ft
Nearby Weather Stations

Elev 623 ft 38.59 °N, 90.38 °W | Updated 25 seconds ago

Clear
Clear
38.3 °F
Feels Like 38 °F
N
0.0
Wind Variable Wind from East

Today
High -- | Low -- °F
--% Chance of Precip.
Yesterday
High -- | Low -- °F
Precip. -- in
Pressure 30.40 in
Visibility 10.0 miles
Clouds Few 11000 ft
Scattered Clouds 25000 ft
Windchill 38 °F
Dew Point 17 °F
Humidity 42%
Rainfall 0.00 in
Snow Depth Not available.
7:03 AM 5:27 PM
Waning Crescent, 9% visible
METAR KSTL 052251Z 00000KT 10SM FEW110 SCT250 04/M09 A3037 RMK AO2 SLP293 T00441094 $
Pressure 30.40 in
Visibility 10.0 miles
Clouds Few 11000 ft
Scattered Clouds 25000 ft
Windchill 38 °F
Dew Point 17 °F
Humidity 42%
Rainfall 0.00 in
Snow Depth Not available.
7:03 AM 5:27 PM
Waning Crescent, 9% visible
METAR KSTL 052251Z 00000KT 10SM FEW110 SCT250 04/M09 A3037 RMK AO2 SLP293 T00441094 $

10-Day Weather Forecast

Almanac

Astronomy

Feb. 05, 2016 Rise Set
Actual Time
Civil Twilight
Nautical Twilight
Astronomical Twilight
Moon
Length of Visible Light
Length of Day
Tomorrow will be .
, % of the Moon is Illuminated

Today's Extremes

State Highs State Lows

Community

WunderPhotos

Upload Photos

1,890,881 photos uploaded!

WunderBlog® & News

Nearby

Air Quality

  Air Quality AQ Index Pollutant
Not available.

Snow Depth

Station Depth Elevation

Earthquake Activity

City Distance Mag. Time & Date
Minimum magnitude displayed is 2.5.

Coastal Water Temperatures

Place Temperature

Stations

Nearby Weather Stations

Station Location Temp. Windchill Dew Point Humidity Wind Precip. Elev Updated Type
                   

Watches & Warnings

There are currently no watches in effect.